sensor_id;sensor_type;location;lat;lon;timestamp;pressure;altitude;pressure_sealevel;temperature;humidity
31761;BME280;18335;51.486;7.562;2023-05-11T00:01:18;100004.06;;;14.30;100.00
31761;BME280;18335;51.486;7.562;2023-05-11T00:03:46;100003.78;;;14.25;100.00
31761;BME280;18335;51.486;7.562;2023-05-11T00:06:12;100002.13;;;14.24;100.00
31761;BME280;18335;51.486;7.562;2023-05-11T00:08:40;99999.91;;;14.34;100.00
31761;BME280;18335;51.486;7.562;2023-05-11T00:11:07;99998.72;;;14.44;100.00
31761;BME280;18335;51.486;7.562;2023-05-11T00:13:34;100003.72;;;14.33;100.00
31761;BME280;18335;51.486;7.562;2023-05-11T00:16:00;99996.53;;;14.32;100.00
31761;BME280;18335;51.486;7.562;2023-05-11T00:18:28;99999.81;;;14.28;100.00
31761;BME280;18335;51.486;7.562;2023-05-11T00:20:55;99996.34;;;14.19;100.00
31761;BME280;18335;51.486;7.562;2023-05-11T00:23:22;99996.63;;;14.24;100.00
31761;BME280;18335;51.486;7.562;2023-05-11T00:25:50;99994.44;;;14.20;100.00
31761;BME280;18335;51.486;7.562;2023-05-11T00:28:16;99996.09;;;14.14;100.00
31761;BME280;18335;51.486;7.562;2023-05-11T00:30:43;99987.19;;;14.12;100.00
31761;BME280;18335;51.486;7.562;2023-05-11T00:33:10;99994.81;;;13.96;100.00
31761;BME280;18335;51.486;7.562;2023-05-11T00:35:37;99998.13;;;13.91;100.00
31761;BME280;18335;51.486;7.562;2023-05-11T00:38:03;100004.09;;;13.95;100.00
31761;BME280;18335;51.486;7.562;2023-05-11T00:40:31;99997.66;;;13.88;100.00
31761;BME280;18335;51.486;7.562;2023-05-11T00:42:59;99996.81;;;13.87;100.00
31761;BME280;18335;51.486;7.562;2023-05-11T00:45:26;99995.78;;;13.88;100.00
31761;BME280;18335;51.486;7.562;2023-05-11T00:47:53;99993.72;;;13.75;100.00
31761;BME280;18335;51.486;7.562;2023-05-11T00:50:19;99990.38;;;13.80;100.00
31761;BME280;18335;51.486;7.562;2023-05-11T00:52:46;99981.72;;;13.76;100.00
31761;BME280;18335;51.486;7.562;2023-05-11T00:55:13;99998.72;;;13.72;100.00
31761;BME280;18335;51.486;7.562;2023-05-11T00:57:41;99994.97;;;13.73;100.00
31761;BME280;18335;51.486;7.562;2023-05-11T01:00:10;99994.97;;;13.73;100.00
31761;BME280;18335;51.486;7.562;2023-05-11T01:02:37;99988.53;;;13.66;100.00
31761;BME280;18335;51.486;7.562;2023-05-11T01:05:05;99993.34;;;13.78;100.00
31761;BME280;18335;51.486;7.562;2023-05-11T01:07:37;99989.34;;;13.81;100.00
31761;BME280;18335;51.486;7.562;2023-05-11T01:10:13;99989.66;;;13.71;100.00
31761;BME280;18335;51.486;7.562;2023-05-11T01:12:47;99988.97;;;13.84;100.00
31761;BME280;18335;51.486;7.562;2023-05-11T01:15:23;99996.16;;;13.85;100.00
31761;BME280;18335;51.486;7.562;2023-05-11T01:17:57;99995.72;;;13.67;100.00
31761;BME280;18335;51.486;7.562;2023-05-11T01:20:28;99992.88;;;13.75;100.00
31761;BME280;18335;51.486;7.562;2023-05-11T01:23:11;99992.47;;;13.78;100.00
31761;BME280;18335;51.486;7.562;2023-05-11T01:26:02;99994.97;;;13.73;100.00
31761;BME280;18335;51.486;7.562;2023-05-11T01:31:53;99994.28;;;13.85;100.00
31761;BME280;18335;51.486;7.562;2023-05-11T01:34:23;100005.06;;;13.72;100.00
31761;BME280;18335;51.486;7.562;2023-05-11T01:36:53;100002.13;;;13.74;100.00
31761;BME280;18335;51.486;7.562;2023-05-11T01:39:25;100000.72;;;13.78;100.00
31761;BME280;18335;51.486;7.562;2023-05-11T01:41:53;100002.81;;;13.76;100.00
31761;BME280;18335;51.486;7.562;2023-05-11T01:44:24;100015.19;;;13.72;100.00
31761;BME280;18335;51.486;7.562;2023-05-11T01:46:55;100009.22;;;13.68;100.00
31761;BME280;18335;51.486;7.562;2023-05-11T01:49:23;100008.47;;;13.74;100.00
31761;BME280;18335;51.486;7.562;2023-05-11T01:51:50;100014.41;;;13.78;100.00
31761;BME280;18335;51.486;7.562;2023-05-11T01:54:19;100015.66;;;13.75;100.00
31761;BME280;18335;51.486;7.562;2023-05-11T01:56:47;100013.19;;;13.80;100.00
31761;BME280;18335;51.486;7.562;2023-05-11T01:59:16;100021.31;;;13.74;100.00
31761;BME280;18335;51.486;7.562;2023-05-11T02:01:44;100019.22;;;13.91;100.00
31761;BME280;18335;51.486;7.562;2023-05-11T02:04:14;100018.59;;;13.89;100.00
31761;BME280;18335;51.486;7.562;2023-05-11T02:06:41;100013.09;;;13.89;100.00
31761;BME280;18335;51.486;7.562;2023-05-11T02:09:10;100010.25;;;13.82;100.00
31761;BME280;18335;51.486;7.562;2023-05-11T02:11:38;100006.94;;;13.86;100.00
31761;BME280;18335;51.486;7.562;2023-05-11T02:14:07;100016.66;;;13.89;100.00
31761;BME280;18335;51.486;7.562;2023-05-11T02:16:36;100017.44;;;13.83;100.00
31761;BME280;18335;51.486;7.562;2023-05-11T02:19:05;100017.91;;;13.86;100.00
31761;BME280;18335;51.486;7.562;2023-05-11T02:21:35;100013.22;;;13.66;100.00
31761;BME280;18335;51.486;7.562;2023-05-11T02:24:04;100014.91;;;13.67;100.00
31761;BME280;18335;51.486;7.562;2023-05-11T02:26:32;100019.13;;;13.84;100.00
31761;BME280;18335;51.486;7.562;2023-05-11T02:29:00;100019.34;;;13.82;100.00
31761;BME280;18335;51.486;7.562;2023-05-11T02:31:28;100012.31;;;13.80;100.00
31761;BME280;18335;51.486;7.562;2023-05-11T02:33:59;100013.56;;;13.77;100.00
31761;BME280;18335;51.486;7.562;2023-05-11T02:36:28;100009.19;;;13.83;100.00
31761;BME280;18335;51.486;7.562;2023-05-11T02:39:02;100018.03;;;13.78;100.00
31761;BME280;18335;51.486;7.562;2023-05-11T02:41:32;100012.25;;;13.88;100.00
31761;BME280;18335;51.486;7.562;2023-05-11T02:44:06;100018.97;;;13.71;100.00
31761;BME280;18335;51.486;7.562;2023-05-11T02:46:35;100017.63;;;13.81;100.00
31761;BME280;18335;51.486;7.562;2023-05-11T02:49:07;100017.81;;;13.80;100.00
31761;BME280;18335;51.486;7.562;2023-05-11T02:51:35;100012.72;;;13.77;100.00
31761;BME280;18335;51.486;7.562;2023-05-11T02:54:06;100013.47;;;13.71;100.00
31761;BME280;18335;51.486;7.562;2023-05-11T02:56:37;100021.16;;;13.75;100.00
31761;BME280;18335;51.486;7.562;2023-05-11T02:59:04;100017.75;;;13.73;100.00
31761;BME280;18335;51.486;7.562;2023-05-11T03:01:32;100019.91;;;13.78;100.00
31761;BME280;18335;51.486;7.562;2023-05-11T03:03:59;100018.03;;;13.78;100.00
31761;BME280;18335;51.486;7.562;2023-05-11T03:06:28;100015.38;;;13.85;100.00
31761;BME280;18335;51.486;7.562;2023-05-11T03:08:54;100020.28;;;13.75;100.00
31761;BME280;18335;51.486;7.562;2023-05-11T03:11:24;100024.06;;;13.74;100.00
31761;BME280;18335;51.486;7.562;2023-05-11T03:13:51;100020.88;;;13.70;100.00
31761;BME280;18335;51.486;7.562;2023-05-11T03:16:19;100023.31;;;13.65;100.00
31761;BME280;18335;51.486;7.562;2023-05-11T03:18:47;100027.00;;;13.72;100.00
31761;BME280;18335;51.486;7.562;2023-05-11T03:21:17;100022.75;;;13.70;100.00
31761;BME280;18335;51.486;7.562;2023-05-11T03:23:46;100024.91;;;13.74;100.00
31761;BME280;18335;51.486;7.562;2023-05-11T03:26:15;100015.56;;;13.69;100.00
31761;BME280;18335;51.486;7.562;2023-05-11T03:28:45;100021.81;;;13.63;100.00
31761;BME280;18335;51.486;7.562;2023-05-11T03:31:13;100022.75;;;13.70;100.00
31761;BME280;18335;51.486;7.562;2023-05-11T03:33:39;100022.94;;;13.68;100.00
31761;BME280;18335;51.486;7.562;2023-05-11T03:36:08;100025.88;;;13.67;100.00
31761;BME280;18335;51.486;7.562;2023-05-11T03:38:36;100026.63;;;13.75;100.00
31761;BME280;18335;51.486;7.562;2023-05-11T03:41:05;100024.91;;;13.74;100.00
31761;BME280;18335;51.486;7.562;2023-05-11T03:43:35;100017.94;;;13.72;100.00
31761;BME280;18335;51.486;7.562;2023-05-11T03:46:05;100019.75;;;13.65;100.00
31761;BME280;18335;51.486;7.562;2023-05-11T03:48:32;100011.13;;;13.68;100.00
31761;BME280;18335;51.486;7.562;2023-05-11T03:50:59;100015.84;;;13.74;100.00
31761;BME280;18335;51.486;7.562;2023-05-11T03:53:26;100013.09;;;13.74;100.00
31761;BME280;18335;51.486;7.562;2023-05-11T03:55:53;100012.66;;;13.70;100.00
31761;BME280;18335;51.486;7.562;2023-05-11T03:58:20;100019.34;;;13.68;100.00
31761;BME280;18335;51.486;7.562;2023-05-11T04:00:48;100006.59;;;13.60;100.00
31761;BME280;18335;51.486;7.562;2023-05-11T04:03:16;100011.91;;;13.32;100.00
31761;BME280;18335;51.486;7.562;2023-05-11T04:05:43;100006.13;;;13.57;100.00
31761;BME280;18335;51.486;7.562;2023-05-11T04:08:11;100011.16;;;13.39;100.00
31761;BME280;18335;51.486;7.562;2023-05-11T04:10:38;100007.19;;;13.56;100.00
31761;BME280;18335;51.486;7.562;2023-05-11T04:13:06;100007.84;;;13.43;100.00
31761;BME280;18335;51.486;7.562;2023-05-11T04:15:33;100014.34;;;13.57;100.00
31761;BME280;18335;51.486;7.562;2023-05-11T04:18:00;100011.91;;;13.62;100.00
31761;BME280;18335;51.486;7.562;2023-05-11T04:20:28;100013.31;;;13.58;100.00
31761;BME280;18335;51.486;7.562;2023-05-11T04:22:55;100014.28;;;13.65;100.00
31761;BME280;18335;51.486;7.562;2023-05-11T04:25:21;100015.69;;;13.46;100.00
31761;BME280;18335;51.486;7.562;2023-05-11T04:27:48;100021.53;;;13.58;100.00
31761;BME280;18335;51.486;7.562;2023-05-11T04:30:15;100016.44;;;13.40;100.00
31761;BME280;18335;51.486;7.562;2023-05-11T04:32:42;100018.22;;;13.62;100.00
31761;BME280;18335;51.486;7.562;2023-05-11T04:35:09;100009.69;;;13.72;100.00
31761;BME280;18335;51.486;7.562;2023-05-11T04:37:38;100015.56;;;13.69;100.00
31761;BME280;18335;51.486;7.562;2023-05-11T04:40:08;100015.56;;;13.69;100.00
31761;BME280;18335;51.486;7.562;2023-05-11T04:42:39;100017.28;;;13.70;100.00
31761;BME280;18335;51.486;7.562;2023-05-11T04:45:10;100022.25;;;13.81;100.00
31761;BME280;18335;51.486;7.562;2023-05-11T04:47:37;100027.75;;;13.81;100.00
31761;BME280;18335;51.486;7.562;2023-05-11T04:50:06;100030.97;;;13.84;100.00
31761;BME280;18335;51.486;7.562;2023-05-11T04:52:34;100029.25;;;13.83;100.00
31761;BME280;18335;51.486;7.562;2023-05-11T04:55:03;100036.06;;;13.88;100.00
31761;BME280;18335;51.486;7.562;2023-05-11T04:57:30;100029.44;;;13.97;100.00
31761;BME280;18335;51.486;7.562;2023-05-11T04:59:57;100042.03;;;13.91;100.00
31761;BME280;18335;51.486;7.562;2023-05-11T05:02:24;100040.28;;;14.05;100.00
31761;BME280;18335;51.486;7.562;2023-05-11T05:04:50;100037.31;;;13.85;100.00
31761;BME280;18335;51.486;7.562;2023-05-11T05:07:17;100036.81;;;13.96;100.00
31761;BME280;18335;51.486;7.562;2023-05-11T05:09:44;100031.28;;;14.11;100.00
31761;BME280;18335;51.486;7.562;2023-05-11T05:12:12;100039.56;;;13.96;100.00
31761;BME280;18335;51.486;7.562;2023-05-11T05:14:39;100049.03;;;13.79;100.00
31761;BME280;18335;51.486;7.562;2023-05-11T05:17:06;100043.78;;;13.99;100.00
31761;BME280;18335;51.486;7.562;2023-05-11T05:19:33;100044.16;;;14.10;100.00
31761;BME280;18335;51.486;7.562;2023-05-11T05:21:59;100042.06;;;14.12;100.00
31761;BME280;18335;51.486;7.562;2023-05-11T05:24:26;100046.78;;;14.18;100.00
31761;BME280;18335;51.486;7.562;2023-05-11T05:26:53;100047.44;;;14.20;100.00
31761;BME280;18335;51.486;7.562;2023-05-11T05:29:21;100047.44;;;14.20;100.00
31761;BME280;18335;51.486;7.562;2023-05-11T05:31:48;100040.25;;;14.19;100.00
31761;BME280;18335;51.486;7.562;2023-05-11T05:34:15;100050.09;;;14.14;100.00
31761;BME280;18335;51.486;7.562;2023-05-11T05:36:43;100055.31;;;14.09;100.00
31761;BME280;18335;51.486;7.562;2023-05-11T05:39:09;100058.09;;;13.94;100.00
31761;BME280;18335;51.486;7.562;2023-05-11T05:41:37;100050.13;;;13.99;100.00
31761;BME280;18335;51.486;7.562;2023-05-11T05:44:07;100054.56;;;14.15;100.00
31761;BME280;18335;51.486;7.562;2023-05-11T05:46:35;100071.88;;;14.15;100.00
31761;BME280;18335;51.486;7.562;2023-05-11T05:49:01;100070.06;;;14.08;100.00
31761;BME280;18335;51.486;7.562;2023-05-11T05:51:29;100064.22;;;14.11;100.00
31761;BME280;18335;51.486;7.562;2023-05-11T05:53:57;100072.41;;;14.25;100.00
31761;BME280;18335;51.486;7.562;2023-05-11T05:56:23;100067.88;;;14.32;100.00
31761;BME280;18335;51.486;7.562;2023-05-11T05:58:50;100074.50;;;14.23;100.00
31761;BME280;18335;51.486;7.562;2023-05-11T06:01:17;100076.59;;;14.21;100.00
31761;BME280;18335;51.486;7.562;2023-05-11T06:03:45;100079.13;;;14.37;100.00
31761;BME280;18335;51.486;7.562;2023-05-11T06:06:13;100074.50;;;14.23;100.00
31761;BME280;18335;51.486;7.562;2023-05-11T06:08:39;100079.22;;;14.29;100.00
31761;BME280;18335;51.486;7.562;2023-05-11T06:11:07;100082.56;;;14.10;100.00
31761;BME280;18335;51.486;7.562;2023-05-11T06:13:34;100078.19;;;14.30;100.00
31761;BME280;18335;51.486;7.562;2023-05-11T06:16:01;100076.47;;;14.65;100.00
31761;BME280;18335;51.486;7.562;2023-05-11T06:18:31;100067.78;;;14.62;100.00
31761;BME280;18335;51.486;7.562;2023-05-11T06:21:02;100075.59;;;14.44;100.00
31761;BME280;18335;51.486;7.562;2023-05-11T06:23:30;100076.84;;;14.26;100.00
31761;BME280;18335;51.486;7.562;2023-05-11T06:25:57;100076.00;;;14.62;100.00
31761;BME280;18335;51.486;7.562;2023-05-11T06:28:25;100066.72;;;14.84;100.00
31761;BME280;18335;51.486;7.562;2023-05-11T06:30:56;100074.81;;;14.92;100.00
31761;BME280;18335;51.486;7.562;2023-05-11T06:33:26;100074.25;;;14.75;100.00
31761;BME280;18335;51.486;7.562;2023-05-11T06:35:54;100076.66;;;14.28;100.00
31761;BME280;18335;51.486;7.562;2023-05-11T06:38:22;100073.88;;;14.43;100.00
31761;BME280;18335;51.486;7.562;2023-05-11T06:40:51;100070.06;;;14.79;100.00
31761;BME280;18335;51.486;7.562;2023-05-11T06:43:17;100069.13;;;14.93;100.00
31761;BME280;18335;51.486;7.562;2023-05-11T06:45:47;100070.50;;;14.83;100.00
31761;BME280;18335;51.486;7.562;2023-05-11T06:48:14;100073.78;;;14.72;100.00
31761;BME280;18335;51.486;7.562;2023-05-11T06:50:40;100076.34;;;14.73;100.00
31761;BME280;18335;51.486;7.562;2023-05-11T06:53:11;100077.19;;;14.95;100.00
31761;BME280;18335;51.486;7.562;2023-05-11T06:55:39;100077.75;;;14.90;100.00
31761;BME280;18335;51.486;7.562;2023-05-11T06:58:06;100078.84;;;15.17;100.00
31761;BME280;18335;51.486;7.562;2023-05-11T07:00:32;100076.75;;;15.19;100.00
31761;BME280;18335;51.486;7.562;2023-05-11T07:02:59;100078.41;;;15.14;100.00
31761;BME280;18335;51.486;7.562;2023-05-11T07:05:26;100082.78;;;15.36;100.00
31761;BME280;18335;51.486;7.562;2023-05-11T07:07:53;100081.59;;;15.17;100.00
31761;BME280;18335;51.486;7.562;2023-05-11T07:10:19;100076.53;;;14.93;100.00
31761;BME280;18335;51.486;7.562;2023-05-11T07:12:47;100080.50;;;14.90;100.00
31761;BME280;18335;51.486;7.562;2023-05-11T07:15:14;100075.69;;;15.20;100.00
31761;BME280;18335;51.486;7.562;2023-05-11T07:17:41;100074.66;;;15.21;100.00
31761;BME280;18335;51.486;7.562;2023-05-11T07:20:11;100077.22;;;15.23;100.00
31761;BME280;18335;51.486;7.562;2023-05-11T07:22:38;100078.00;;;15.17;100.00
31761;BME280;18335;51.486;7.562;2023-05-11T07:25:06;100075.34;;;15.02;100.00
31761;BME280;18335;51.486;7.562;2023-05-11T07:27:34;100076.94;;;15.18;100.00
31761;BME280;18335;51.486;7.562;2023-05-11T07:30:02;100081.28;;;15.06;100.00
31761;BME280;18335;51.486;7.562;2023-05-11T07:32:30;100076.47;;;14.86;100.00
31761;BME280;18335;51.486;7.562;2023-05-11T07:34:57;100071.88;;;14.93;100.00
31761;BME280;18335;51.486;7.562;2023-05-11T07:37:23;100078.28;;;15.01;100.00
31761;BME280;18335;51.486;7.562;2023-05-11T07:39:50;100081.19;;;14.92;100.00
31761;BME280;18335;51.486;7.562;2023-05-11T07:42:18;100082.13;;;15.06;100.00
31761;BME280;18335;51.486;7.562;2023-05-11T07:44:45;100082.97;;;15.07;100.00
31761;BME280;18335;51.486;7.562;2023-05-11T07:47:13;100079.22;;;15.14;100.00
31761;BME280;18335;51.486;7.562;2023-05-11T07:49:40;100086.19;;;15.10;100.00
31761;BME280;18335;51.486;7.562;2023-05-11T07:52:07;100080.44;;;15.05;100.00
31761;BME280;18335;51.486;7.562;2023-05-11T07:54:34;100084.91;;;15.34;100.00
31761;BME280;18335;51.486;7.562;2023-05-11T07:57:00;100078.72;;;15.53;100.00
31761;BME280;18335;51.486;7.562;2023-05-11T07:59:28;100074.50;;;15.57;100.00
31761;BME280;18335;51.486;7.562;2023-05-11T08:01:55;100072.56;;;15.51;100.00
31761;BME280;18335;51.486;7.562;2023-05-11T08:04:25;100077.88;;;15.53;100.00
31761;BME280;18335;51.486;7.562;2023-05-11T08:06:52;100079.47;;;15.40;100.00
31761;BME280;18335;51.486;7.562;2023-05-11T08:09:19;100087.81;;;15.26;100.00
31761;BME280;18335;51.486;7.562;2023-05-11T08:11:45;100083.31;;;15.80;100.00
31761;BME280;18335;51.486;7.562;2023-05-11T08:14:12;100079.34;;;15.83;100.00
31761;BME280;18335;51.486;7.562;2023-05-11T08:16:39;100079.91;;;16.19;100.00
31761;BME280;18335;51.486;7.562;2023-05-11T08:19:06;100080.78;;;16.20;100.00
31761;BME280;18335;51.486;7.562;2023-05-11T08:21:34;100084.31;;;16.00;100.00
31761;BME280;18335;51.486;7.562;2023-05-11T08:24:01;100079.78;;;16.40;100.00
31761;BME280;18335;51.486;7.562;2023-05-11T08:26:27;100085.69;;;16.37;100.00
31761;BME280;18335;51.486;7.562;2023-05-11T08:28:54;100077.03;;;16.40;100.00
31761;BME280;18335;51.486;7.562;2023-05-11T08:31:21;100076.69;;;16.70;100.00
31761;BME280;18335;51.486;7.562;2023-05-11T08:33:47;100076.31;;;16.79;100.00
31761;BME280;18335;51.486;7.562;2023-05-11T08:36:14;100079.69;;;16.75;100.00
31761;BME280;18335;51.486;7.562;2023-05-11T08:38:42;100078.44;;;16.84;100.00
31761;BME280;18335;51.486;7.562;2023-05-11T08:41:10;100074.44;;;16.93;100.00
31761;BME280;18335;51.486;7.562;2023-05-11T08:43:38;100067.00;;;17.46;100.00
31761;BME280;18335;51.486;7.562;2023-05-11T08:46:07;100079.69;;;17.53;100.00
31761;BME280;18335;51.486;7.562;2023-05-11T08:48:34;100067.16;;;17.84;100.00
31761;BME280;18335;51.486;7.562;2023-05-11T08:51:01;100063.13;;;17.80;100.00
31761;BME280;18335;51.486;7.562;2023-05-11T08:53:28;100067.81;;;17.79;100.00
31761;BME280;18335;51.486;7.562;2023-05-11T08:55:58;100063.47;;;18.09;100.00
31761;BME280;18335;51.486;7.562;2023-05-11T08:58:26;100065.13;;;18.17;100.00
31761;BME280;18335;51.486;7.562;2023-05-11T09:00:53;100065.84;;;17.93;100.00
31761;BME280;18335;51.486;7.562;2023-05-11T09:03:20;100064.88;;;17.67;100.00
31761;BME280;18335;51.486;7.562;2023-05-11T09:05:48;100068.16;;;17.96;100.00
31761;BME280;18335;51.486;7.562;2023-05-11T09:08:17;100067.38;;;17.76;100.00
31761;BME280;18335;51.486;7.562;2023-05-11T09:10:44;100066.88;;;18.05;100.00
31761;BME280;18335;51.486;7.562;2023-05-11T09:13:12;100064.25;;;18.23;100.00
31761;BME280;18335;51.486;7.562;2023-05-11T09:15:39;100069.50;;;18.31;100.00
31761;BME280;18335;51.486;7.562;2023-05-11T09:18:06;100066.06;;;17.98;100.00
31761;BME280;18335;51.486;7.562;2023-05-11T09:20:33;100064.06;;;18.62;100.00
31761;BME280;18335;51.486;7.562;2023-05-11T09:23:00;100065.34;;;18.66;100.00
31761;BME280;18335;51.486;7.562;2023-05-11T09:25:29;100059.44;;;19.12;100.00
31761;BME280;18335;51.486;7.562;2023-05-11T09:27:59;100054.97;;;19.36;100.00
31761;BME280;18335;51.486;7.562;2023-05-11T09:30:28;100046.00;;;19.65;100.00
31761;BME280;18335;51.486;7.562;2023-05-11T09:32:56;100048.97;;;19.46;100.00
31761;BME280;18335;51.486;7.562;2023-05-11T09:35:25;100053.66;;;19.45;100.00
31761;BME280;18335;51.486;7.562;2023-05-11T09:37:57;100050.63;;;18.97;100.00
31761;BME280;18335;51.486;7.562;2023-05-11T09:40:24;100049.41;;;18.93;100.00
31761;BME280;18335;51.486;7.562;2023-05-11T09:42:51;100052.03;;;18.50;100.00
31761;BME280;18335;51.486;7.562;2023-05-11T09:45:37;100048.91;;;17.83;100.00
31761;BME280;18335;51.486;7.562;2023-05-11T09:48:05;100053.56;;;17.89;100.00
31761;BME280;18335;51.486;7.562;2023-05-11T09:50:33;100057.22;;;17.69;100.00
31761;BME280;18335;51.486;7.562;2023-05-11T09:53:00;100055.50;;;17.68;100.00
31761;BME280;18335;51.486;7.562;2023-05-11T09:55:27;100054.69;;;17.55;100.00
31761;BME280;18335;51.486;7.562;2023-05-11T09:57:54;100057.66;;;17.40;100.00
31761;BME280;18335;51.486;7.562;2023-05-11T10:00:21;100069.94;;;17.44;100.00
31761;BME280;18335;51.486;7.562;2023-05-11T10:03:01;100059.16;;;17.10;100.00
31761;BME280;18335;51.486;7.562;2023-05-11T10:05:29;100066.13;;;17.39;100.00
31761;BME280;18335;51.486;7.562;2023-05-11T10:07:57;100051.09;;;17.54;100.00
31761;BME280;18335;51.486;7.562;2023-05-11T10:10:25;100045.97;;;17.71;100.00
31761;BME280;18335;51.486;7.562;2023-05-11T10:12:53;100050.84;;;17.62;100.00
31761;BME280;18335;51.486;7.562;2023-05-11T10:15:22;100046.78;;;17.72;100.00
31761;BME280;18335;51.486;7.562;2023-05-11T10:17:52;100051.69;;;17.76;100.00
31761;BME280;18335;51.486;7.562;2023-05-11T10:20:22;100046.59;;;17.53;100.00
31761;BME280;18335;51.486;7.562;2023-05-11T10:22:50;100038.75;;;17.57;100.00
31761;BME280;18335;51.486;7.562;2023-05-11T10:25:19;100042.16;;;17.52;100.00
31761;BME280;18335;51.486;7.562;2023-05-11T10:27:47;100050.03;;;17.55;100.00
31761;BME280;18335;51.486;7.562;2023-05-11T10:30:14;100044.88;;;17.72;100.00
31761;BME280;18335;51.486;7.562;2023-05-11T10:32:43;100043.84;;;17.73;100.00
31761;BME280;18335;51.486;7.562;2023-05-11T10:35:10;100040.91;;;17.61;100.00
31761;BME280;18335;51.486;7.562;2023-05-11T10:37:39;100040.09;;;18.05;100.00
31761;BME280;18335;51.486;7.562;2023-05-11T10:40:07;100037.50;;;18.17;100.00
31761;BME280;18335;51.486;7.562;2023-05-11T10:45:27;100049.16;;;18.19;100.00
31761;BME280;18335;51.486;7.562;2023-05-11T10:48:29;;;;18.06;
31761;BME280;18335;51.486;7.562;2023-05-11T10:51:22;100041.34;;;18.60;100.00
31761;BME280;18335;51.486;7.562;2023-05-11T10:54:06;100043.56;;;18.76;100.00
31761;BME280;18335;51.486;7.562;2023-05-11T10:56:47;100036.41;;;18.69;100.00
31761;BME280;18335;51.486;7.562;2023-05-11T10:59:43;100041.88;;;18.75;100.00
31761;BME280;18335;51.486;7.562;2023-05-11T11:02:11;100033.66;;;19.18;100.00
31761;BME280;18335;51.486;7.562;2023-05-11T11:04:43;100024.31;;;19.44;100.00
31761;BME280;18335;51.486;7.562;2023-05-11T11:07:11;100022.28;;;19.51;100.00
31761;BME280;18335;51.486;7.562;2023-05-11T11:09:51;100020.00;;;19.48;100.00
31761;BME280;18335;51.486;7.562;2023-05-11T11:12:18;100018.75;;;19.62;100.00
31761;BME280;18335;51.486;7.562;2023-05-11T11:14:56;100030.53;;;19.33;100.00
31761;BME280;18335;51.486;7.562;2023-05-11T11:17:25;100011.13;;;19.40;100.00
31761;BME280;18335;51.486;7.562;2023-05-11T11:19:53;100022.63;;;19.61;100.00
31761;BME280;18335;51.486;7.562;2023-05-11T11:22:42;100008.09;;;19.84;100.00
31761;BME280;18335;51.486;7.562;2023-05-11T11:25:14;100020.16;;;19.71;100.00
31761;BME280;18335;51.486;7.562;2023-05-11T11:27:54;100017.75;;;19.57;100.00
31761;BME280;18335;51.486;7.562;2023-05-11T11:30:22;100017.25;;;19.66;100.00
31761;BME280;18335;51.486;7.562;2023-05-11T11:32:51;100006.16;;;20.03;100.00
31761;BME280;18335;51.486;7.562;2023-05-11T11:35:45;100014.19;;;20.22;100.00
31761;BME280;18335;51.486;7.562;2023-05-11T11:38:14;100009.06;;;20.26;100.00
31761;BME280;18335;51.486;7.562;2023-05-11T11:40:44;100009.44;;;20.11;100.00
31761;BME280;18335;51.486;7.562;2023-05-11T11:43:11;100005.50;;;19.89;100.00
31761;BME280;18335;51.486;7.562;2023-05-11T11:45:39;100016.16;;;20.22;100.00
31761;BME280;18335;51.486;7.562;2023-05-11T11:48:15;100016.91;;;20.59;100.00
31761;BME280;18335;51.486;7.562;2023-05-11T11:50:46;100013.84;;;20.67;100.00
31761;BME280;18335;51.486;7.562;2023-05-11T11:56:44;100009.50;;;20.23;100.00
31761;BME280;18335;51.486;7.562;2023-05-11T11:59:12;100011.28;;;20.35;100.00
31761;BME280;18335;51.486;7.562;2023-05-11T12:01:41;100004.31;;;19.78;100.00
31761;BME280;18335;51.486;7.562;2023-05-11T12:04:49;100007.19;;;20.20;100.00
31761;BME280;18335;51.486;7.562;2023-05-11T12:07:19;100004.31;;;19.78;100.00
31761;BME280;18335;51.486;7.562;2023-05-11T12:09:47;99992.84;;;19.75;100.00
31761;BME280;18335;51.486;7.562;2023-05-11T12:12:17;99998.69;;;20.21;100.00
31761;BME280;18335;51.486;7.562;2023-05-11T12:14:45;99996.88;;;19.97;100.00
31761;BME280;18335;51.486;7.562;2023-05-11T12:17:15;99998.84;;;20.08;100.00
31761;BME280;18335;51.486;7.562;2023-05-11T12:19:48;99994.41;;;19.89;100.00
31761;BME280;18335;51.486;7.562;2023-05-11T12:22:20;100000.59;;;20.39;100.00
31761;BME280;18335;51.486;7.562;2023-05-11T12:24:47;99996.16;;;19.83;100.00
31761;BME280;18335;51.486;7.562;2023-05-11T12:27:16;99998.84;;;19.72;100.00
31761;BME280;18335;51.486;7.562;2023-05-11T12:29:47;99993.84;;;19.62;100.00
31761;BME280;18335;51.486;7.562;2023-05-11T12:32:14;99994.56;;;19.58;100.00
31761;BME280;18335;51.486;7.562;2023-05-11T12:34:41;99994.41;;;18.54;100.00
31761;BME280;18335;51.486;7.562;2023-05-11T12:37:08;99999.28;;;18.14;100.00
31761;BME280;18335;51.486;7.562;2023-05-11T12:39:34;99997.34;;;17.77;100.00
31761;BME280;18335;51.486;7.562;2023-05-11T12:42:01;99994.16;;;17.80;100.00
31761;BME280;18335;51.486;7.562;2023-05-11T12:44:31;99993.13;;;17.67;100.00
31761;BME280;18335;51.486;7.562;2023-05-11T12:46:58;99989.75;;;17.52;100.00
31761;BME280;18335;51.486;7.562;2023-05-11T12:49:25;99989.81;;;17.97;100.00
31761;BME280;18335;51.486;7.562;2023-05-11T12:52:00;99992.31;;;18.05;100.00
31761;BME280;18335;51.486;7.562;2023-05-11T12:54:29;99993.31;;;17.73;100.00
31761;BME280;18335;51.486;7.562;2023-05-11T12:56:56;99991.53;;;17.98;100.00
31761;BME280;18335;51.486;7.562;2023-05-11T12:59:28;99996.94;;;17.66;100.00
31761;BME280;18335;51.486;7.562;2023-05-11T13:02:14;99988.06;;;17.58;100.00